sensor_id;sensor_type;location;lat;lon;timestamp;P1;durP1;ratioP1;P2;durP2;ratioP2
59336;SDS011;45115;52.002;4.686;2023-07-20T00:00:05;22.77;;;12.30;;
59336;SDS011;45115;52.002;4.686;2023-07-20T00:02:38;23.25;;;13.43;;
59336;SDS011;45115;52.002;4.686;2023-07-20T00:05:05;25.75;;;13.15;;
59336;SDS011;45115;52.002;4.686;2023-07-20T00:07:32;20.83;;;12.07;;
59336;SDS011;45115;52.002;4.686;2023-07-20T00:09:59;24.77;;;14.02;;
59336;SDS011;45115;52.002;4.686;2023-07-20T00:12:25;26.20;;;13.93;;
59336;SDS011;45115;52.002;4.686;2023-07-20T00:14:53;23.83;;;13.32;;
59336;SDS011;45115;52.002;4.686;2023-07-20T00:17:20;22.70;;;12.85;;
59336;SDS011;45115;52.002;4.686;2023-07-20T00:19:47;22.92;;;13.25;;
59336;SDS011;45115;52.002;4.686;2023-07-20T00:22:13;24.27;;;13.85;;
59336;SDS011;45115;52.002;4.686;2023-07-20T00:24:40;25.00;;;13.57;;
59336;SDS011;45115;52.002;4.686;2023-07-20T00:27:07;22.98;;;13.23;;
59336;SDS011;45115;52.002;4.686;2023-07-20T00:29:34;25.25;;;14.70;;
59336;SDS011;45115;52.002;4.686;2023-07-20T00:32:03;24.75;;;13.05;;
59336;SDS011;45115;52.002;4.686;2023-07-20T00:34:31;24.83;;;13.10;;
59336;SDS011;45115;52.002;4.686;2023-07-20T00:36:58;23.35;;;12.80;;
59336;SDS011;45115;52.002;4.686;2023-07-20T00:39:25;24.88;;;13.85;;
59336;SDS011;45115;52.002;4.686;2023-07-20T00:41:51;24.27;;;13.05;;
59336;SDS011;45115;52.002;4.686;2023-07-20T00:44:18;22.10;;;12.73;;
59336;SDS011;45115;52.002;4.686;2023-07-20T00:46:45;24.75;;;14.05;;
59336;SDS011;45115;52.002;4.686;2023-07-20T00:49:13;21.95;;;12.60;;
59336;SDS011;45115;52.002;4.686;2023-07-20T00:51:40;21.80;;;12.40;;
59336;SDS011;45115;52.002;4.686;2023-07-20T00:54:08;22.33;;;11.60;;
59336;SDS011;45115;52.002;4.686;2023-07-20T00:56:35;19.30;;;11.00;;
59336;SDS011;45115;52.002;4.686;2023-07-20T00:59:02;20.40;;;10.80;;
59336;SDS011;45115;52.002;4.686;2023-07-20T01:01:29;19.00;;;10.77;;
59336;SDS011;45115;52.002;4.686;2023-07-20T01:03:55;18.20;;;10.25;;
59336;SDS011;45115;52.002;4.686;2023-07-20T01:06:26;17.15;;;9.98;;
59336;SDS011;45115;52.002;4.686;2023-07-20T01:09:02;20.08;;;10.15;;
59336;SDS011;45115;52.002;4.686;2023-07-20T01:11:39;17.38;;;9.30;;
59336;SDS011;45115;52.002;4.686;2023-07-20T01:14:12;16.30;;;9.73;;
59336;SDS011;45115;52.002;4.686;2023-07-20T01:16:40;15.50;;;7.15;;
59336;SDS011;45115;52.002;4.686;2023-07-20T01:19:07;13.52;;;7.28;;
59336;SDS011;45115;52.002;4.686;2023-07-20T01:21:39;11.43;;;6.53;;
59336;SDS011;45115;52.002;4.686;2023-07-20T01:24:19;12.80;;;6.20;;
59336;SDS011;45115;52.002;4.686;2023-07-20T01:30:02;11.32;;;5.82;;
59336;SDS011;45115;52.002;4.686;2023-07-20T01:32:42;14.07;;;6.88;;
59336;SDS011;45115;52.002;4.686;2023-07-20T01:35:10;9.48;;;5.22;;
59336;SDS011;45115;52.002;4.686;2023-07-20T01:37:40;13.48;;;6.85;;
59336;SDS011;45115;52.002;4.686;2023-07-20T01:40:09;15.80;;;7.75;;
59336;SDS011;45115;52.002;4.686;2023-07-20T01:42:36;16.00;;;8.02;;
59336;SDS011;45115;52.002;4.686;2023-07-20T01:45:03;15.45;;;7.50;;
59336;SDS011;45115;52.002;4.686;2023-07-20T01:47:31;14.85;;;7.07;;
59336;SDS011;45115;52.002;4.686;2023-07-20T01:49:59;14.48;;;7.65;;
59336;SDS011;45115;52.002;4.686;2023-07-20T01:52:25;14.35;;;7.32;;
59336;SDS011;45115;52.002;4.686;2023-07-20T01:54:52;14.93;;;7.15;;
59336;SDS011;45115;52.002;4.686;2023-07-20T01:57:19;13.38;;;7.32;;
59336;SDS011;45115;52.002;4.686;2023-07-20T01:59:45;13.10;;;6.72;;
59336;SDS011;45115;52.002;4.686;2023-07-20T02:02:12;13.60;;;7.10;;
59336;SDS011;45115;52.002;4.686;2023-07-20T02:04:38;15.00;;;7.80;;
59336;SDS011;45115;52.002;4.686;2023-07-20T02:07:06;14.30;;;7.85;;
59336;SDS011;45115;52.002;4.686;2023-07-20T02:09:33;14.80;;;8.13;;
59336;SDS011;45115;52.002;4.686;2023-07-20T02:11:59;16.08;;;8.55;;
59336;SDS011;45115;52.002;4.686;2023-07-20T02:14:26;14.50;;;7.47;;
59336;SDS011;45115;52.002;4.686;2023-07-20T02:16:53;14.80;;;7.43;;
59336;SDS011;45115;52.002;4.686;2023-07-20T02:19:26;12.45;;;6.68;;
59336;SDS011;45115;52.002;4.686;2023-07-20T02:21:53;13.52;;;7.63;;
59336;SDS011;45115;52.002;4.686;2023-07-20T02:24:21;13.65;;;7.55;;
59336;SDS011;45115;52.002;4.686;2023-07-20T02:26:48;12.95;;;7.18;;
59336;SDS011;45115;52.002;4.686;2023-07-20T02:29:14;13.23;;;6.68;;
59336;SDS011;45115;52.002;4.686;2023-07-20T02:31:42;13.23;;;7.28;;
59336;SDS011;45115;52.002;4.686;2023-07-20T02:34:08;13.50;;;6.72;;
59336;SDS011;45115;52.002;4.686;2023-07-20T02:36:35;10.95;;;6.38;;
59336;SDS011;45115;52.002;4.686;2023-07-20T02:39:02;10.43;;;5.97;;
59336;SDS011;45115;52.002;4.686;2023-07-20T02:41:32;10.68;;;5.70;;
59336;SDS011;45115;52.002;4.686;2023-07-20T02:43:59;11.93;;;6.78;;
59336;SDS011;45115;52.002;4.686;2023-07-20T02:46:26;13.68;;;7.32;;
59336;SDS011;45115;52.002;4.686;2023-07-20T02:48:55;15.07;;;7.47;;
59336;SDS011;45115;52.002;4.686;2023-07-20T02:51:22;14.05;;;7.15;;
59336;SDS011;45115;52.002;4.686;2023-07-20T02:53:48;11.20;;;6.38;;
59336;SDS011;45115;52.002;4.686;2023-07-20T02:56:15;12.90;;;6.68;;
59336;SDS011;45115;52.002;4.686;2023-07-20T02:58:44;13.73;;;7.72;;
59336;SDS011;45115;52.002;4.686;2023-07-20T03:01:11;14.00;;;8.25;;
59336;SDS011;45115;52.002;4.686;2023-07-20T03:03:39;16.70;;;9.02;;
59336;SDS011;45115;52.002;4.686;2023-07-20T03:06:06;16.70;;;9.88;;
59336;SDS011;45115;52.002;4.686;2023-07-20T03:08:33;18.95;;;10.90;;
59336;SDS011;45115;52.002;4.686;2023-07-20T03:11:00;19.48;;;10.43;;
59336;SDS011;45115;52.002;4.686;2023-07-20T03:13:28;16.35;;;9.93;;
59336;SDS011;45115;52.002;4.686;2023-07-20T03:15:56;17.65;;;9.60;;
59336;SDS011;45115;52.002;4.686;2023-07-20T03:18:23;18.63;;;10.65;;
59336;SDS011;45115;52.002;4.686;2023-07-20T03:20:50;17.20;;;10.25;;
59336;SDS011;45115;52.002;4.686;2023-07-20T03:23:17;21.58;;;11.57;;
59336;SDS011;45115;52.002;4.686;2023-07-20T03:25:43;19.33;;;10.95;;
59336;SDS011;45115;52.002;4.686;2023-07-20T03:28:10;20.27;;;11.27;;
59336;SDS011;45115;52.002;4.686;2023-07-20T03:30:37;16.75;;;10.52;;
59336;SDS011;45115;52.002;4.686;2023-07-20T03:33:05;16.63;;;10.05;;
59336;SDS011;45115;52.002;4.686;2023-07-20T03:35:32;16.70;;;10.45;;
59336;SDS011;45115;52.002;4.686;2023-07-20T03:37:58;16.73;;;9.77;;
59336;SDS011;45115;52.002;4.686;2023-07-20T03:40:25;16.38;;;9.88;;
59336;SDS011;45115;52.002;4.686;2023-07-20T03:42:52;18.92;;;10.77;;
59336;SDS011;45115;52.002;4.686;2023-07-20T03:45:19;18.73;;;11.07;;
59336;SDS011;45115;52.002;4.686;2023-07-20T03:47:46;15.40;;;9.07;;
59336;SDS011;45115;52.002;4.686;2023-07-20T03:50:14;16.50;;;9.85;;
59336;SDS011;45115;52.002;4.686;2023-07-20T03:52:41;17.67;;;10.45;;
59336;SDS011;45115;52.002;4.686;2023-07-20T03:55:08;17.35;;;9.38;;
59336;SDS011;45115;52.002;4.686;2023-07-20T03:57:35;17.92;;;10.32;;
59336;SDS011;45115;52.002;4.686;2023-07-20T04:00:02;18.15;;;10.70;;
59336;SDS011;45115;52.002;4.686;2023-07-20T04:02:38;16.20;;;9.25;;
59336;SDS011;45115;52.002;4.686;2023-07-20T04:05:04;15.43;;;8.23;;
59336;SDS011;45115;52.002;4.686;2023-07-20T04:07:33;15.13;;;7.78;;
59336;SDS011;45115;52.002;4.686;2023-07-20T04:10:03;14.70;;;8.30;;
59336;SDS011;45115;52.002;4.686;2023-07-20T04:12:30;15.55;;;8.30;;
59336;SDS011;45115;52.002;4.686;2023-07-20T04:14:57;15.68;;;8.75;;
59336;SDS011;45115;52.002;4.686;2023-07-20T04:17:23;15.00;;;8.75;;
59336;SDS011;45115;52.002;4.686;2023-07-20T04:19:50;13.10;;;7.85;;
59336;SDS011;45115;52.002;4.686;2023-07-20T04:22:17;13.48;;;7.55;;
59336;SDS011;45115;52.002;4.686;2023-07-20T04:24:45;12.82;;;6.75;;
59336;SDS011;45115;52.002;4.686;2023-07-20T04:27:11;13.60;;;7.40;;
59336;SDS011;45115;52.002;4.686;2023-07-20T04:29:38;10.23;;;6.35;;
59336;SDS011;45115;52.002;4.686;2023-07-20T04:32:05;11.65;;;6.70;;
59336;SDS011;45115;52.002;4.686;2023-07-20T04:34:35;12.23;;;6.60;;
59336;SDS011;45115;52.002;4.686;2023-07-20T04:37:02;13.65;;;6.57;;
59336;SDS011;45115;52.002;4.686;2023-07-20T04:39:30;10.48;;;6.35;;
59336;SDS011;45115;52.002;4.686;2023-07-20T04:42:00;9.57;;;5.75;;
59336;SDS011;45115;52.002;4.686;2023-07-20T04:44:27;11.77;;;6.00;;
59336;SDS011;45115;52.002;4.686;2023-07-20T04:46:53;13.93;;;7.07;;
59336;SDS011;45115;52.002;4.686;2023-07-20T04:49:20;11.60;;;6.72;;
59336;SDS011;45115;52.002;4.686;2023-07-20T04:51:47;13.10;;;6.75;;
59336;SDS011;45115;52.002;4.686;2023-07-20T04:54:15;13.90;;;7.13;;
59336;SDS011;45115;52.002;4.686;2023-07-20T04:56:43;12.25;;;6.63;;
59336;SDS011;45115;52.002;4.686;2023-07-20T04:59:13;15.30;;;7.32;;
59336;SDS011;45115;52.002;4.686;2023-07-20T05:01:39;17.05;;;8.38;;
59336;SDS011;45115;52.002;4.686;2023-07-20T05:04:06;19.13;;;7.40;;
59336;SDS011;45115;52.002;4.686;2023-07-20T05:06:33;13.35;;;7.30;;
59336;SDS011;45115;52.002;4.686;2023-07-20T05:09:00;14.30;;;7.10;;
59336;SDS011;45115;52.002;4.686;2023-07-20T05:11:27;12.90;;;7.30;;
59336;SDS011;45115;52.002;4.686;2023-07-20T05:13:53;13.00;;;6.85;;
59336;SDS011;45115;52.002;4.686;2023-07-20T05:16:21;15.25;;;7.63;;
59336;SDS011;45115;52.002;4.686;2023-07-20T05:18:48;14.80;;;7.82;;
59336;SDS011;45115;52.002;4.686;2023-07-20T05:21:15;14.63;;;7.68;;
59336;SDS011;45115;52.002;4.686;2023-07-20T05:23:42;12.00;;;6.63;;
59336;SDS011;45115;52.002;4.686;2023-07-20T05:26:09;10.73;;;6.28;;
59336;SDS011;45115;52.002;4.686;2023-07-20T05:28:36;11.40;;;5.80;;
59336;SDS011;45115;52.002;4.686;2023-07-20T05:31:03;10.70;;;6.25;;
59336;SDS011;45115;52.002;4.686;2023-07-20T05:33:31;8.38;;;5.40;;
59336;SDS011;45115;52.002;4.686;2023-07-20T05:35:58;12.68;;;5.90;;
59336;SDS011;45115;52.002;4.686;2023-07-20T05:38:25;9.23;;;5.10;;
59336;SDS011;45115;52.002;4.686;2023-07-20T05:40:51;8.55;;;4.82;;
59336;SDS011;45115;52.002;4.686;2023-07-20T05:43:18;8.30;;;4.80;;
59336;SDS011;45115;52.002;4.686;2023-07-20T05:45:45;7.20;;;4.70;;
59336;SDS011;45115;52.002;4.686;2023-07-20T05:48:12;7.78;;;4.85;;
59336;SDS011;45115;52.002;4.686;2023-07-20T05:50:43;7.85;;;4.20;;
59336;SDS011;45115;52.002;4.686;2023-07-20T05:53:09;8.15;;;5.15;;
59336;SDS011;45115;52.002;4.686;2023-07-20T05:55:36;7.85;;;4.47;;
59336;SDS011;45115;52.002;4.686;2023-07-20T05:58:04;7.72;;;5.10;;
59336;SDS011;45115;52.002;4.686;2023-07-20T06:00:31;11.55;;;6.00;;
59336;SDS011;45115;52.002;4.686;2023-07-20T06:02:57;7.05;;;4.90;;
59336;SDS011;45115;52.002;4.686;2023-07-20T06:05:24;8.35;;;4.80;;
59336;SDS011;45115;52.002;4.686;2023-07-20T06:07:52;7.07;;;4.63;;
59336;SDS011;45115;52.002;4.686;2023-07-20T06:10:19;8.00;;;4.15;;
59336;SDS011;45115;52.002;4.686;2023-07-20T06:12:46;6.50;;;3.78;;
59336;SDS011;45115;52.002;4.686;2023-07-20T06:15:26;5.30;;;3.55;;
59336;SDS011;45115;52.002;4.686;2023-07-20T06:17:53;4.88;;;3.40;;
59336;SDS011;45115;52.002;4.686;2023-07-20T06:20:21;4.60;;;3.30;;
59336;SDS011;45115;52.002;4.686;2023-07-20T06:22:48;5.13;;;2.90;;
59336;SDS011;45115;52.002;4.686;2023-07-20T06:25:16;3.80;;;2.83;;
59336;SDS011;45115;52.002;4.686;2023-07-20T06:27:42;2.97;;;2.53;;
59336;SDS011;45115;52.002;4.686;2023-07-20T06:30:09;4.05;;;2.65;;
59336;SDS011;45115;52.002;4.686;2023-07-20T06:32:37;5.68;;;2.92;;
59336;SDS011;45115;52.002;4.686;2023-07-20T06:35:04;4.20;;;2.80;;
59336;SDS011;45115;52.002;4.686;2023-07-20T18:59:48;3.03;;;1.80;;
59336;SDS011;45115;52.002;4.686;2023-07-20T19:02:15;2.15;;;1.65;;
59336;SDS011;45115;52.002;4.686;2023-07-20T19:04:42;1.75;;;1.52;;
59336;SDS011;45115;52.002;4.686;2023-07-20T19:07:09;1.70;;;1.60;;
59336;SDS011;45115;52.002;4.686;2023-07-20T19:09:36;1.98;;;1.80;;
59336;SDS011;45115;52.002;4.686;2023-07-20T19:12:03;1.80;;;1.70;;
59336;SDS011;45115;52.002;4.686;2023-07-20T19:14:31;1.70;;;1.60;;
59336;SDS011;45115;52.002;4.686;2023-07-20T19:16:59;2.40;;;1.83;;
59336;SDS011;45115;52.002;4.686;2023-07-20T19:19:27;2.47;;;1.80;;
59336;SDS011;45115;52.002;4.686;2023-07-20T19:21:54;1.80;;;1.70;;
59336;SDS011;45115;52.002;4.686;2023-07-20T19:24:20;2.00;;;1.80;;
59336;SDS011;45115;52.002;4.686;2023-07-20T19:26:47;4.03;;;1.90;;
59336;SDS011;45115;52.002;4.686;2023-07-20T19:29:14;3.03;;;2.20;;
59336;SDS011;45115;52.002;4.686;2023-07-20T19:31:40;2.28;;;1.83;;
59336;SDS011;45115;52.002;4.686;2023-07-20T19:34:09;2.22;;;1.90;;
59336;SDS011;45115;52.002;4.686;2023-07-20T19:36:36;2.88;;;1.90;;
59336;SDS011;45115;52.002;4.686;2023-07-20T19:39:02;2.30;;;2.00;;
59336;SDS011;45115;52.002;4.686;2023-07-20T19:41:29;4.80;;;2.30;;
59336;SDS011;45115;52.002;4.686;2023-07-20T19:43:56;2.10;;;1.92;;
59336;SDS011;45115;52.002;4.686;2023-07-20T19:46:22;2.70;;;1.90;;
59336;SDS011;45115;52.002;4.686;2023-07-20T19:48:49;2.80;;;2.10;;
59336;SDS011;45115;52.002;4.686;2023-07-20T19:51:17;2.83;;;2.20;;
59336;SDS011;45115;52.002;4.686;2023-07-20T19:53:44;2.22;;;1.90;;
59336;SDS011;45115;52.002;4.686;2023-07-20T19:56:12;1.98;;;1.83;;
59336;SDS011;45115;52.002;4.686;2023-07-20T19:58:39;2.65;;;1.98;;
59336;SDS011;45115;52.002;4.686;2023-07-20T20:01:06;3.80;;;2.28;;
59336;SDS011;45115;52.002;4.686;2023-07-20T20:03:33;2.88;;;2.30;;
59336;SDS011;45115;52.002;4.686;2023-07-20T20:06:00;2.65;;;2.03;;
59336;SDS011;45115;52.002;4.686;2023-07-20T20:08:28;2.10;;;2.00;;
59336;SDS011;45115;52.002;4.686;2023-07-20T20:10:58;3.03;;;2.25;;
59336;SDS011;45115;52.002;4.686;2023-07-20T20:13:25;3.03;;;2.20;;
59336;SDS011;45115;52.002;4.686;2023-07-20T20:15:53;2.88;;;2.00;;
59336;SDS011;45115;52.002;4.686;2023-07-20T20:18:20;2.92;;;2.25;;
59336;SDS011;45115;52.002;4.686;2023-07-20T20:20:47;3.20;;;2.15;;
59336;SDS011;45115;52.002;4.686;2023-07-20T20:23:15;2.75;;;2.10;;
59336;SDS011;45115;52.002;4.686;2023-07-20T20:25:44;3.10;;;2.20;;
59336;SDS011;45115;52.002;4.686;2023-07-20T20:28:11;3.63;;;2.15;;
59336;SDS011;45115;52.002;4.686;2023-07-20T20:30:42;2.38;;;2.17;;
59336;SDS011;45115;52.002;4.686;2023-07-20T20:33:09;2.10;;;1.77;;
59336;SDS011;45115;52.002;4.686;2023-07-20T20:35:36;5.30;;;2.15;;
59336;SDS011;45115;52.002;4.686;2023-07-20T20:38:06;2.15;;;1.90;;
59336;SDS011;45115;52.002;4.686;2023-07-20T20:40:33;1.92;;;1.83;;
59336;SDS011;45115;52.002;4.686;2023-07-20T20:43:01;3.30;;;1.98;;
59336;SDS011;45115;52.002;4.686;2023-07-20T20:45:27;2.30;;;2.10;;
59336;SDS011;45115;52.002;4.686;2023-07-20T20:47:54;2.13;;;1.90;;
59336;SDS011;45115;52.002;4.686;2023-07-20T20:50:30;4.28;;;2.17;;
59336;SDS011;45115;52.002;4.686;2023-07-20T20:52:57;3.40;;;2.28;;
59336;SDS011;45115;52.002;4.686;2023-07-20T20:55:23;3.33;;;2.03;;
59336;SDS011;45115;52.002;4.686;2023-07-20T20:57:51;3.92;;;2.22;;
59336;SDS011;45115;52.002;4.686;2023-07-20T21:00:21;4.25;;;2.25;;
59336;SDS011;45115;52.002;4.686;2023-07-20T21:02:48;3.05;;;2.38;;
59336;SDS011;45115;52.002;4.686;2023-07-20T21:05:15;2.38;;;2.17;;
59336;SDS011;45115;52.002;4.686;2023-07-20T21:07:42;2.90;;;2.40;;
59336;SDS011;45115;52.002;4.686;2023-07-20T21:10:09;2.58;;;2.25;;
59336;SDS011;45115;52.002;4.686;2023-07-20T21:12:36;2.58;;;2.28;;
59336;SDS011;45115;52.002;4.686;2023-07-20T21:15:03;3.85;;;2.50;;
59336;SDS011;45115;52.002;4.686;2023-07-20T21:17:32;3.20;;;2.50;;
59336;SDS011;45115;52.002;4.686;2023-07-20T21:19:59;2.88;;;2.28;;
59336;SDS011;45115;52.002;4.686;2023-07-20T21:22:26;2.92;;;2.33;;
59336;SDS011;45115;52.002;4.686;2023-07-20T21:24:52;2.28;;;2.08;;
59336;SDS011;45115;52.002;4.686;2023-07-20T21:27:19;4.68;;;2.38;;
59336;SDS011;45115;52.002;4.686;2023-07-20T21:29:46;4.22;;;2.45;;
59336;SDS011;45115;52.002;4.686;2023-07-20T21:32:13;2.58;;;2.28;;
59336;SDS011;45115;52.002;4.686;2023-07-20T21:34:42;2.35;;;2.15;;
59336;SDS011;45115;52.002;4.686;2023-07-20T21:37:09;2.65;;;2.15;;
59336;SDS011;45115;52.002;4.686;2023-07-20T21:39:36;3.88;;;2.40;;
59336;SDS011;45115;52.002;4.686;2023-07-20T21:42:03;3.30;;;3.00;;
59336;SDS011;45115;52.002;4.686;2023-07-20T21:44:30;3.30;;;2.58;;
59336;SDS011;45115;52.002;4.686;2023-07-20T21:46:57;3.05;;;2.13;;
59336;SDS011;45115;52.002;4.686;2023-07-20T21:49:23;2.90;;;2.30;;
59336;SDS011;45115;52.002;4.686;2023-07-20T21:51:51;3.92;;;2.60;;
59336;SDS011;45115;52.002;4.686;2023-07-20T21:54:18;2.80;;;2.42;;
59336;SDS011;45115;52.002;4.686;2023-07-20T21:56:45;2.88;;;2.45;;
59336;SDS011;45115;52.002;4.686;2023-07-20T21:59:12;2.53;;;2.33;;
59336;SDS011;45115;52.002;4.686;2023-07-20T22:01:39;3.78;;;2.47;;
59336;SDS011;45115;52.002;4.686;2023-07-20T22:04:05;5.25;;;2.70;;
59336;SDS011;45115;52.002;4.686;2023-07-20T22:06:33;3.88;;;2.85;;
59336;SDS011;45115;52.002;4.686;2023-07-20T22:09:02;3.00;;;2.53;;
59336;SDS011;45115;52.002;4.686;2023-07-20T22:11:29;4.13;;;3.15;;
59336;SDS011;45115;52.002;4.686;2023-07-20T22:13:56;6.55;;;3.05;;
59336;SDS011;45115;52.002;4.686;2023-07-20T22:16:23;3.83;;;2.72;;
59336;SDS011;45115;52.002;4.686;2023-07-20T22:18:49;3.92;;;2.67;;
59336;SDS011;45115;52.002;4.686;2023-07-20T22:21:16;3.72;;;2.45;;
59336;SDS011;45115;52.002;4.686;2023-07-20T22:23:43;3.75;;;3.00;;
59336;SDS011;45115;52.002;4.686;2023-07-20T22:26:11;4.15;;;3.03;;
59336;SDS011;45115;52.002;4.686;2023-07-20T22:28:38;8.30;;;3.38;;
59336;SDS011;45115;52.002;4.686;2023-07-20T22:31:05;7.47;;;3.33;;
59336;SDS011;45115;52.002;4.686;2023-07-20T22:33:31;3.88;;;2.90;;
59336;SDS011;45115;52.002;4.686;2023-07-20T22:35:58;5.15;;;3.20;;
59336;SDS011;45115;52.002;4.686;2023-07-20T22:38:25;3.17;;;2.75;;
59336;SDS011;45115;52.002;4.686;2023-07-20T22:40:52;4.25;;;3.05;;
59336;SDS011;45115;52.002;4.686;2023-07-20T22:43:20;3.45;;;3.03;;
59336;SDS011;45115;52.002;4.686;2023-07-20T22:45:50;3.17;;;2.70;;
59336;SDS011;45115;52.002;4.686;2023-07-20T22:48:16;5.10;;;3.00;;
59336;SDS011;45115;52.002;4.686;2023-07-20T22:50:47;4.03;;;2.90;;
59336;SDS011;45115;52.002;4.686;2023-07-20T22:53:14;3.38;;;2.75;;
59336;SDS011;45115;52.002;4.686;2023-07-20T22:55:42;4.55;;;2.92;;
59336;SDS011;45115;52.002;4.686;2023-07-20T22:58:09;3.72;;;2.88;;
59336;SDS011;45115;52.002;4.686;2023-07-20T23:00:37;4.57;;;3.22;;
59336;SDS011;45115;52.002;4.686;2023-07-20T23:03:04;5.22;;;3.42;;
59336;SDS011;45115;52.002;4.686;2023-07-20T23:05:31;6.15;;;3.47;;
59336;SDS011;45115;52.002;4.686;2023-07-20T23:07:58;5.13;;;3.10;;
59336;SDS011;45115;52.002;4.686;2023-07-20T23:10:25;4.40;;;2.97;;
59336;SDS011;45115;52.002;4.686;2023-07-20T23:12:52;6.05;;;3.25;;
59336;SDS011;45115;52.002;4.686;2023-07-20T23:15:19;4.60;;;3.28;;
59336;SDS011;45115;52.002;4.686;2023-07-20T23:17:47;4.57;;;2.75;;
59336;SDS011;45115;52.002;4.686;2023-07-20T23:20:14;3.65;;;2.60;;
59336;SDS011;45115;52.002;4.686;2023-07-20T23:22:45;4.53;;;3.17;;
59336;SDS011;45115;52.002;4.686;2023-07-20T23:25:17;3.20;;;2.63;;
59336;SDS011;45115;52.002;4.686;2023-07-20T23:27:45;3.70;;;2.75;;
59336;SDS011;45115;52.002;4.686;2023-07-20T23:30:12;6.63;;;3.03;;
59336;SDS011;45115;52.002;4.686;2023-07-20T23:32:39;4.13;;;3.00;;
59336;SDS011;45115;52.002;4.686;2023-07-20T23:35:08;4.35;;;2.60;;
59336;SDS011;45115;52.002;4.686;2023-07-20T23:37:36;3.30;;;2.50;;
59336;SDS011;45115;52.002;4.686;2023-07-20T23:40:03;4.00;;;2.65;;
59336;SDS011;45115;52.002;4.686;2023-07-20T23:42:38;3.85;;;2.80;;
59336;SDS011;45115;52.002;4.686;2023-07-20T23:45:05;5.18;;;2.70;;
59336;SDS011;45115;52.002;4.686;2023-07-20T23:47:34;4.50;;;2.65;;
59336;SDS011;45115;52.002;4.686;2023-07-20T23:50:00;3.70;;;2.70;;
59336;SDS011;45115;52.002;4.686;2023-07-20T23:52:29;2.67;;;2.47;;
59336;SDS011;45115;52.002;4.686;2023-07-20T23:54:59;3.03;;;2.55;;
